createdAt,value
2023-03-02T00:02:01.971Z,40.50
2023-03-02T00:04:55.649Z,40.70
2023-03-02T00:07:35.993Z,41.20
2023-03-02T00:10:06.685Z,40.80
2023-03-02T00:12:38.705Z,40.60
2023-03-02T00:15:15.244Z,40.70
2023-03-02T00:17:42.152Z,40.70
2023-03-02T00:20:13.062Z,40.60
2023-03-02T00:22:45.226Z,40.60
2023-03-02T00:25:15.081Z,40.70
2023-03-02T00:27:42.215Z,40.80
2023-03-02T00:30:14.557Z,40.60
2023-03-02T00:32:46.024Z,40.70
2023-03-02T00:35:15.945Z,40.70
2023-03-02T00:37:43.281Z,40.90
2023-03-02T00:40:11.443Z,40.90
2023-03-02T00:42:40.005Z,40.90
2023-03-02T00:45:07.997Z,40.90
2023-03-02T00:47:40.647Z,40.90
2023-03-02T00:50:09.469Z,41.00
2023-03-02T00:52:38.520Z,40.90
2023-03-02T00:55:11.628Z,41.00
2023-03-02T00:57:41.358Z,41.10
2023-03-02T01:00:11.426Z,41.10
2023-03-02T01:02:45.481Z,41.10
2023-03-02T01:05:17.001Z,41.30
2023-03-02T01:07:46.897Z,42.00
2023-03-02T01:10:16.526Z,41.40
2023-03-02T01:12:45.994Z,41.30
2023-03-02T01:15:15.971Z,41.30
2023-03-02T01:17:47.636Z,41.30
2023-03-02T01:20:17.363Z,41.50
2023-03-02T01:22:51.991Z,41.50
2023-03-02T01:25:19.438Z,42.10
2023-03-02T01:27:49.719Z,41.30
2023-03-02T01:30:17.366Z,41.40
2023-03-02T01:32:46.689Z,41.50
2023-03-02T01:35:15.905Z,41.50
2023-03-02T01:37:47.370Z,41.50
2023-03-02T01:40:14.699Z,41.60
2023-03-02T01:42:52.792Z,41.50
2023-03-02T01:45:52.856Z,41.80
2023-03-02T01:48:42.990Z,42.40
2023-03-02T01:51:18.373Z,41.80
2023-03-02T01:53:54.643Z,41.60
2023-03-02T01:56:34.812Z,41.70
2023-03-02T01:59:13.032Z,42.10
2023-03-02T02:01:44.764Z,41.70
2023-03-02T02:04:14.806Z,41.70
2023-03-02T02:06:47.970Z,42.40
2023-03-02T02:09:22.427Z,42.00
2023-03-02T02:11:54.372Z,41.80
2023-03-02T02:14:24.457Z,41.90
2023-03-02T02:16:52.593Z,41.90
2023-03-02T02:19:52.012Z,41.90
2023-03-02T02:22:56.915Z,42.70
2023-03-02T02:25:55.552Z,42.20
2023-03-02T02:28:42.790Z,42.50
2023-03-02T02:31:26.579Z,42.30
2023-03-02T02:34:14.685Z,42.40
2023-03-02T02:36:47.668Z,42.20
2023-03-02T02:39:28.821Z,42.10
2023-03-02T02:42:02.825Z,42.10
2023-03-02T02:44:31.476Z,42.10
2023-03-02T02:47:00.678Z,42.20
2023-03-02T02:49:41.226Z,42.10
2023-03-02T02:52:18.064Z,42.50
2023-03-02T02:54:50.788Z,42.50
2023-03-02T02:57:24.430Z,42.30
2023-03-02T03:00:00.713Z,42.20
2023-03-02T03:02:39.730Z,43.10
2023-03-02T03:05:14.301Z,42.30
2023-03-02T03:07:41.378Z,42.20
2023-03-02T03:10:30.986Z,42.30
2023-03-02T03:12:57.997Z,42.50
2023-03-02T03:15:31.410Z,42.20
2023-03-02T03:17:59.268Z,42.20
2023-03-02T03:20:29.321Z,42.30
2023-03-02T03:23:01.352Z,42.20
2023-03-02T03:25:32.006Z,42.40
2023-03-02T03:28:04.938Z,42.40
2023-03-02T03:30:36.677Z,42.50
2023-03-02T03:33:06.182Z,42.50
2023-03-02T03:35:33.246Z,42.50
2023-03-02T03:38:00.271Z,42.40
2023-03-02T03:40:27.358Z,42.60
2023-03-02T03:42:56.872Z,42.50
2023-03-02T03:45:30.357Z,42.60
2023-03-02T03:47:58.213Z,42.60
2023-03-02T03:50:30.182Z,42.70
2023-03-02T03:53:03.809Z,42.70
2023-03-02T03:55:31.526Z,42.70
2023-03-02T03:58:01.079Z,42.60
2023-03-02T04:00:35.385Z,42.60
2023-03-02T04:03:10.507Z,42.70
2023-03-02T04:05:37.346Z,42.70
2023-03-02T04:08:07.830Z,42.70
2023-03-02T04:10:35.935Z,42.70
2023-03-02T04:13:05.959Z,42.80
2023-03-02T04:15:35.066Z,42.90
2023-03-02T04:18:05.403Z,42.80
2023-03-02T04:20:38.082Z,42.70
2023-03-02T04:23:07.363Z,42.80
2023-03-02T04:25:36.684Z,42.60
2023-03-02T04:28:09.036Z,42.60
2023-03-02T04:30:40.855Z,42.80
2023-03-02T04:33:08.220Z,42.70
2023-03-02T04:35:35.820Z,43.40
2023-03-02T04:38:06.113Z,42.90
2023-03-02T04:40:33.379Z,42.80
2023-03-02T04:43:04.996Z,42.90
2023-03-02T04:45:32.219Z,43.00
2023-03-02T04:48:01.191Z,43.00
2023-03-02T04:50:30.990Z,42.90
2023-03-02T04:52:59.960Z,42.90
2023-03-02T04:55:30.286Z,42.90
2023-03-02T04:58:02.788Z,42.90
2023-03-02T05:00:33.939Z,42.80
2023-03-02T05:03:06.454Z,42.90
2023-03-02T05:05:38.608Z,43.00
2023-03-02T05:08:10.340Z,42.90
2023-03-02T05:10:39.189Z,43.00
2023-03-02T05:13:10.873Z,42.90
2023-03-02T05:15:43.703Z,42.90
2023-03-02T05:18:11.922Z,43.00
2023-03-02T05:20:39.831Z,42.90
2023-03-02T05:23:10.881Z,43.00
2023-03-02T05:25:42.557Z,43.00
2023-03-02T05:28:09.485Z,43.10
2023-03-02T05:30:40.934Z,43.00
2023-03-02T05:33:10.764Z,43.10
2023-03-02T05:35:43.262Z,43.10
2023-03-02T05:38:12.865Z,43.20
2023-03-02T05:40:42.374Z,43.10
2023-03-02T05:43:17.544Z,43.10
2023-03-02T05:45:47.540Z,43.20
2023-03-02T05:48:15.352Z,43.10
2023-03-02T05:50:47.015Z,43.10
2023-03-02T05:53:20.940Z,43.10
2023-03-02T05:55:53.812Z,43.10
2023-03-02T05:58:25.501Z,43.80
2023-03-02T06:00:54.644Z,43.20
2023-03-02T06:03:21.510Z,43.20
2023-03-02T06:05:50.890Z,43.20
2023-03-02T06:08:23.490Z,43.30
2023-03-02T06:10:57.656Z,43.90
2023-03-02T06:13:32.155Z,43.20
2023-03-02T06:16:03.629Z,43.20
2023-03-02T06:18:33.637Z,43.30
2023-03-02T06:21:02.603Z,43.20
2023-03-02T06:23:32.130Z,43.30
2023-03-02T06:25:59.548Z,43.40
2023-03-02T06:28:26.924Z,43.30
2023-03-02T06:30:55.954Z,43.40
2023-03-02T06:33:24.924Z,43.40
2023-03-02T06:35:51.861Z,43.50
2023-03-02T06:38:21.071Z,43.30
2023-03-02T06:40:47.970Z,43.50
2023-03-02T06:43:15.303Z,43.40
2023-03-02T06:45:45.708Z,43.40
2023-03-02T06:48:17.312Z,43.40
2023-03-02T06:50:48.669Z,43.40
2023-03-02T06:53:20.314Z,43.40
2023-03-02T06:55:50.748Z,43.40
2023-03-02T06:58:27.463Z,43.40
2023-03-02T07:00:59.411Z,43.60
2023-03-02T07:03:30.773Z,43.40
2023-03-02T07:06:00.480Z,43.50
2023-03-02T07:08:29.869Z,43.50
2023-03-02T07:10:59.024Z,43.50
2023-03-02T07:13:30.879Z,43.60
2023-03-02T07:15:59.822Z,43.60
2023-03-02T07:18:31.193Z,43.50
2023-03-02T07:21:02.629Z,43.60
2023-03-02T07:23:30.280Z,43.60
2023-03-02T07:25:59.452Z,43.60
2023-03-02T07:28:27.451Z,43.60
2023-03-02T07:30:57.638Z,43.60
2023-03-02T07:33:27.006Z,43.60
2023-03-02T07:35:54.056Z,43.60
2023-03-02T07:38:23.708Z,43.70
2023-03-02T07:40:53.137Z,43.80
2023-03-02T07:43:25.973Z,43.70
2023-03-02T07:45:59.554Z,43.80
2023-03-02T07:48:26.560Z,43.80
2023-03-02T07:50:59.458Z,43.70
2023-03-02T07:53:28.464Z,43.70
2023-03-02T07:55:55.587Z,43.60
2023-03-02T07:58:24.855Z,43.60
2023-03-02T08:00:51.641Z,43.70
2023-03-02T08:03:20.990Z,43.70
2023-03-02T08:05:49.874Z,43.70
2023-03-02T08:08:16.858Z,43.70
2023-03-02T08:10:46.171Z,43.70
2023-03-02T08:13:15.126Z,43.70
2023-03-02T08:15:44.299Z,43.70
2023-03-02T08:18:11.146Z,43.70
2023-03-02T08:20:45.282Z,43.70
2023-03-02T08:23:12.184Z,43.60
2023-03-02T08:25:43.744Z,43.70
2023-03-02T08:28:10.689Z,43.60
2023-03-02T08:30:38.025Z,43.50
2023-03-02T08:33:07.165Z,43.60
2023-03-02T08:35:34.362Z,43.60
2023-03-02T08:38:05.903Z,43.70
2023-03-02T08:40:32.684Z,43.70
2023-03-02T08:42:59.490Z,43.60
2023-03-02T08:45:36.529Z,43.60
2023-03-02T08:48:06.535Z,43.70
2023-03-02T08:50:35.697Z,43.50
2023-03-02T08:53:02.548Z,43.60
2023-03-02T08:55:36.415Z,43.50
2023-03-02T08:58:06.403Z,43.60
2023-03-02T09:00:33.235Z,43.50
2023-03-02T09:03:02.501Z,43.50
2023-03-02T09:05:29.324Z,43.50
2023-03-02T09:07:56.163Z,43.50
2023-03-02T09:10:25.798Z,43.50
2023-03-02T09:12:52.602Z,43.50
2023-03-02T09:15:26.094Z,44.10
2023-03-02T09:17:52.911Z,43.50
2023-03-02T09:20:22.269Z,43.50
2023-03-02T09:22:51.432Z,43.50
2023-03-02T09:25:19.121Z,43.50
2023-03-02T09:27:47.502Z,43.50
2023-03-02T09:30:15.703Z,43.60
2023-03-02T09:32:45.319Z,43.50
2023-03-02T09:35:16.770Z,43.50
2023-03-02T09:37:46.327Z,43.40
2023-03-02T09:40:23.912Z,43.40
2023-03-02T09:43:18.243Z,43.50
2023-03-02T09:45:51.733Z,43.60
2023-03-02T09:48:30.615Z,43.40
2023-03-02T09:51:39.117Z,43.50
2023-03-02T09:54:18.442Z,43.50
2023-03-02T09:57:00.793Z,43.40
2023-03-02T09:59:53.929Z,43.50
2023-03-02T10:02:45.244Z,43.70
2023-03-02T10:05:55.121Z,43.50
2023-03-02T10:08:29.024Z,43.70
2023-03-02T10:11:56.344Z,43.50
2023-03-02T10:14:48.987Z,43.60
2023-03-02T10:17:33.982Z,43.70
2023-03-02T10:20:19.075Z,43.70
2023-03-02T10:22:59.257Z,43.90
2023-03-02T10:25:53.188Z,44.40
2023-03-02T10:28:27.513Z,44.80
2023-03-02T10:31:14.418Z,45.10
2023-03-02T10:33:43.695Z,44.80
2023-03-02T10:36:44.657Z,45.00
2023-03-02T10:39:15.939Z,45.20
2023-03-02T10:41:51.904Z,44.80
2023-03-02T10:44:39.728Z,44.60
2023-03-02T10:47:08.530Z,43.90
2023-03-02T10:49:40.226Z,44.10
2023-03-02T10:52:21.369Z,43.90
2023-03-02T10:54:49.138Z,43.30
2023-03-02T10:57:39.029Z,43.40
2023-03-02T11:00:26.834Z,42.90
2023-03-02T11:03:04.349Z,42.60
2023-03-02T11:05:41.322Z,42.90
2023-03-02T11:08:16.949Z,42.50
2023-03-02T11:11:00.644Z,42.40
2023-03-02T11:13:38.826Z,41.60
2023-03-02T11:16:33.023Z,42.20
2023-03-02T11:19:14.420Z,40.60
2023-03-02T11:21:52.256Z,41.20
2023-03-02T11:24:35.327Z,41.00
2023-03-02T11:27:06.389Z,40.60
2023-03-02T11:29:49.112Z,40.00
2023-03-02T11:32:34.409Z,39.60
2023-03-02T11:35:13.688Z,39.20
2023-03-02T11:37:46.360Z,39.00
2023-03-02T11:40:47.065Z,38.90
2023-03-02T11:43:14.324Z,37.60
2023-03-02T11:46:21.736Z,38.60
2023-03-02T11:48:58.945Z,38.30
2023-03-02T11:51:36.259Z,37.90
2023-03-02T11:54:06.389Z,37.90
2023-03-02T11:56:40.956Z,37.80
2023-03-02T11:59:22.853Z,37.20
2023-03-02T12:01:57.437Z,36.60
2023-03-02T12:04:38.418Z,37.00
2023-03-02T12:07:28.575Z,36.00
2023-03-02T12:10:09.035Z,35.90
2023-03-02T12:12:58.196Z,36.10
2023-03-02T12:15:56.131Z,35.50
2023-03-02T12:18:23.022Z,35.40
2023-03-02T12:21:25.646Z,35.80
2023-03-02T12:23:52.397Z,35.20
2023-03-02T12:31:50.038Z,34.20
2023-03-02T12:34:41.708Z,34.60
2023-03-02T12:37:27.862Z,34.70
2023-03-02T12:40:31.656Z,34.60
2023-03-02T12:43:27.910Z,33.80
2023-03-02T12:46:28.537Z,34.00
2023-03-02T12:49:27.294Z,33.60
2023-03-02T12:52:04.412Z,33.90
2023-03-02T12:54:40.501Z,33.20
2023-03-02T12:57:19.925Z,33.60
2023-03-02T13:00:02.390Z,33.10
2023-03-02T13:02:35.076Z,32.80
2023-03-02T13:05:06.935Z,33.20
2023-03-02T13:08:07.184Z,33.00
2023-03-02T13:10:58.764Z,32.50
2023-03-02T13:13:32.658Z,32.50
2023-03-02T13:16:08.125Z,32.60
2023-03-02T13:18:40.396Z,32.20
2023-03-02T13:21:13.639Z,32.20
2023-03-02T13:23:52.994Z,32.40
2023-03-02T13:26:35.480Z,32.20
2023-03-02T13:29:22.905Z,32.10
2023-03-02T13:31:50.083Z,32.00
2023-03-02T13:34:28.810Z,32.10
2023-03-02T13:36:58.306Z,31.40
2023-03-02T13:39:33.625Z,31.70
2023-03-02T13:42:05.827Z,31.30
2023-03-02T13:44:37.675Z,31.40
2023-03-02T13:47:04.598Z,31.10
2023-03-02T13:49:37.952Z,31.20
2023-03-02T13:52:20.070Z,31.00
2023-03-02T13:54:48.047Z,30.30
2023-03-02T13:57:31.251Z,30.80
2023-03-02T14:00:01.079Z,30.10
2023-03-02T14:02:31.478Z,30.40
2023-03-02T14:05:00.926Z,30.30
2023-03-02T14:07:27.872Z,30.00
2023-03-02T14:09:57.673Z,30.20
2023-03-02T14:12:31.299Z,30.10
2023-03-02T14:15:05.307Z,30.00
2023-03-02T14:17:34.774Z,30.00
2023-03-02T14:20:01.698Z,30.00
2023-03-02T14:22:30.200Z,29.90
2023-03-02T14:25:01.750Z,29.90
2023-03-02T14:27:32.324Z,29.80
2023-03-02T14:30:00.737Z,29.60
2023-03-02T14:32:34.921Z,29.60
2023-03-02T14:35:04.878Z,29.40
2023-03-02T14:37:41.810Z,29.50
2023-03-02T14:40:28.055Z,29.50
2023-03-02T14:42:57.198Z,29.00
2023-03-02T14:45:26.419Z,29.20
2023-03-02T14:47:53.353Z,29.20
2023-03-02T14:50:24.856Z,29.40
2023-03-02T14:52:56.641Z,29.30
2023-03-02T14:55:31.490Z,29.40
2023-03-02T14:58:02.858Z,29.40
2023-03-02T15:00:34.716Z,29.30
2023-03-02T15:03:01.731Z,29.40
2023-03-02T15:05:31.918Z,29.40
2023-03-02T15:07:59.032Z,29.40
2023-03-02T15:10:28.314Z,29.30
2023-03-02T15:12:55.268Z,29.30
2023-03-02T15:15:27.244Z,29.40
2023-03-02T15:17:54.182Z,29.50
2023-03-02T15:20:23.236Z,29.60
2023-03-02T15:22:52.549Z,29.70
2023-03-02T15:25:19.430Z,29.70
2023-03-02T15:27:48.700Z,29.80
2023-03-02T15:30:16.194Z,29.90
2023-03-02T15:32:43.079Z,30.00
2023-03-02T15:35:13.240Z,30.00
2023-03-02T15:37:42.400Z,30.10
2023-03-02T15:40:10.469Z,30.10
2023-03-02T15:42:37.498Z,30.10
2023-03-02T15:45:09.992Z,30.20
2023-03-02T15:47:39.089Z,30.60
2023-03-02T15:50:09.097Z,30.20
2023-03-02T15:52:38.576Z,30.30
2023-03-02T15:55:10.621Z,30.40
2023-03-02T15:57:43.810Z,30.40
2023-03-02T16:00:13.367Z,30.40
2023-03-02T16:02:40.810Z,30.40
2023-03-02T16:05:11.166Z,30.50
2023-03-02T16:07:40.446Z,30.50
2023-03-02T16:10:15.214Z,30.60
2023-03-02T16:12:42.424Z,30.70
2023-03-02T16:15:09.837Z,30.80
2023-03-02T16:17:38.968Z,30.80
2023-03-02T16:20:06.423Z,30.80
2023-03-02T16:22:35.609Z,30.80
2023-03-02T16:25:02.572Z,30.80
2023-03-02T16:27:31.761Z,30.80
2023-03-02T16:29:58.687Z,30.90
2023-03-02T16:32:25.639Z,31.00
2023-03-02T16:34:57.644Z,31.00
2023-03-02T16:37:24.641Z,31.00
2023-03-02T16:39:54.084Z,31.10
2023-03-02T16:42:23.118Z,31.10
2023-03-02T16:44:54.672Z,31.10
2023-03-02T16:47:23.875Z,31.20
2023-03-02T16:49:53.290Z,31.20
2023-03-02T16:52:23.012Z,31.20
2023-03-02T16:54:49.965Z,31.20
2023-03-02T16:57:17.564Z,31.20
2023-03-02T16:59:44.468Z,31.30
2023-03-02T17:02:12.248Z,31.30
2023-03-02T17:04:39.228Z,31.40
2023-03-02T17:07:06.845Z,31.40
2023-03-02T17:09:41.388Z,31.40
2023-03-02T17:12:11.104Z,31.40
2023-03-02T17:14:38.056Z,31.50
2023-03-02T17:17:07.639Z,31.50
2023-03-02T17:19:41.189Z,31.60
2023-03-02T17:22:08.098Z,31.70
2023-03-02T17:24:39.726Z,31.70
2023-03-02T17:27:19.038Z,31.70
2023-03-02T17:29:55.570Z,31.70
2023-03-02T17:32:27.236Z,31.80
2023-03-02T17:34:54.297Z,31.80
2023-03-02T17:37:25.692Z,31.90
2023-03-02T17:39:57.566Z,31.90
2023-03-02T17:42:27.228Z,31.90
2023-03-02T17:44:56.678Z,32.00
2023-03-02T17:47:25.792Z,32.00
2023-03-02T17:49:56.167Z,32.00
2023-03-02T17:52:29.606Z,32.10
2023-03-02T17:54:59.005Z,32.10
2023-03-02T17:57:25.796Z,32.10
2023-03-02T17:59:55.179Z,32.10
2023-03-02T18:02:24.153Z,32.10
2023-03-02T18:04:54.018Z,32.10
2023-03-02T18:07:23.178Z,32.10
2023-03-02T18:09:49.976Z,32.20
2023-03-02T18:12:16.918Z,32.20
2023-03-02T18:14:43.809Z,32.30
2023-03-02T18:17:11.089Z,32.30
2023-03-02T18:19:38.549Z,32.20
2023-03-02T18:22:05.400Z,32.30
2023-03-02T18:24:41.407Z,32.30
2023-03-02T18:27:08.361Z,32.30
2023-03-02T18:29:37.286Z,32.30
2023-03-02T18:32:06.655Z,32.30
2023-03-02T18:34:33.698Z,32.20
2023-03-02T18:37:00.691Z,32.30
2023-03-02T18:39:29.997Z,32.90
2023-03-02T18:41:59.345Z,32.20
2023-03-02T18:44:27.943Z,32.20
2023-03-02T18:46:58.585Z,32.20
2023-03-02T18:49:29.291Z,32.30
2023-03-02T18:51:59.651Z,32.30
2023-03-02T18:54:28.675Z,32.30
2023-03-02T18:56:55.561Z,32.40
2023-03-02T18:59:30.000Z,32.40
2023-03-02T19:01:59.339Z,32.30
2023-03-02T19:04:30.672Z,32.40
2023-03-02T19:07:02.946Z,32.40
2023-03-02T19:09:30.441Z,32.30
2023-03-02T19:12:00.341Z,32.40
2023-03-02T19:14:31.727Z,32.40
2023-03-02T19:16:58.645Z,32.40
2023-03-02T19:19:25.512Z,32.40
2023-03-02T19:21:57.623Z,32.40
2023-03-02T19:24:27.714Z,32.50
2023-03-02T19:26:56.913Z,32.50
2023-03-02T19:29:28.994Z,32.60
2023-03-02T19:32:00.721Z,32.60
2023-03-02T19:34:35.518Z,32.60
2023-03-02T19:37:02.620Z,32.60
2023-03-02T19:39:36.650Z,32.60
2023-03-02T19:42:08.493Z,32.60
2023-03-02T19:44:35.395Z,32.60
2023-03-02T19:47:04.729Z,32.70
2023-03-02T19:49:33.881Z,32.70
2023-03-02T19:52:01.892Z,32.70
2023-03-02T19:54:28.793Z,32.70
2023-03-02T19:57:03.526Z,32.70
2023-03-02T19:59:32.385Z,32.80
2023-03-02T20:02:03.844Z,32.70
2023-03-02T20:04:35.750Z,32.80
2023-03-02T20:07:06.428Z,32.90
2023-03-02T20:09:35.708Z,32.90
2023-03-02T20:12:02.839Z,32.90
2023-03-02T20:14:34.383Z,32.90
2023-03-02T20:17:04.356Z,33.00
2023-03-02T20:19:31.770Z,33.10
2023-03-02T20:22:02.627Z,33.10
2023-03-02T20:24:33.852Z,33.20
2023-03-02T20:27:06.697Z,33.20
2023-03-02T20:29:43.409Z,33.10
2023-03-02T20:32:13.605Z,33.40
2023-03-02T20:34:44.229Z,33.30
2023-03-02T20:37:16.931Z,33.40
2023-03-02T20:39:47.850Z,33.40
2023-03-02T20:42:16.841Z,33.40
2023-03-02T20:44:48.853Z,33.50
2023-03-02T20:47:20.750Z,33.60
2023-03-02T20:49:52.545Z,33.60
2023-03-02T20:52:22.842Z,33.70
2023-03-02T20:54:54.619Z,33.80
2023-03-02T20:57:26.727Z,33.80
2023-03-02T20:59:56.061Z,33.80
2023-03-02T21:02:25.302Z,34.30
2023-03-02T21:04:54.375Z,33.90
2023-03-02T21:07:24.116Z,33.90
2023-03-02T21:09:53.208Z,34.00
2023-03-02T21:12:20.211Z,34.10
2023-03-02T21:14:49.554Z,34.10
2023-03-02T21:17:16.328Z,34.20
2023-03-02T21:19:43.489Z,34.30
2023-03-02T21:22:10.361Z,34.30
2023-03-02T21:24:39.416Z,34.50
2023-03-02T21:27:10.839Z,34.60
2023-03-02T21:29:42.089Z,34.60
2023-03-02T21:32:13.452Z,34.70
2023-03-02T21:34:42.716Z,34.60
2023-03-02T21:37:09.522Z,34.70
2023-03-02T21:39:38.951Z,34.70
2023-03-02T21:42:08.205Z,34.90
2023-03-02T21:44:37.412Z,34.80
2023-03-02T21:47:04.497Z,34.90
2023-03-02T21:49:31.932Z,34.90
2023-03-02T21:52:00.953Z,35.00
2023-03-02T21:54:30.100Z,35.10
2023-03-02T21:56:58.981Z,35.10
2023-03-02T21:59:30.536Z,35.10
2023-03-02T22:01:57.516Z,35.20
2023-03-02T22:04:29.137Z,35.20
2023-03-02T22:06:58.046Z,35.30
2023-03-02T22:09:24.901Z,36.00
2023-03-02T22:11:51.856Z,35.50
2023-03-02T22:14:21.099Z,35.50
2023-03-02T22:16:48.208Z,35.60
2023-03-02T22:19:25.467Z,35.50
2023-03-02T22:21:56.875Z,35.70
2023-03-02T22:24:32.392Z,35.50
2023-03-02T22:27:23.973Z,35.70
2023-03-02T22:29:54.442Z,35.70
2023-03-02T22:32:24.868Z,36.30
2023-03-02T22:34:56.279Z,35.80
2023-03-02T22:37:31.900Z,35.80
2023-03-02T22:40:16.180Z,35.90
2023-03-02T22:42:47.760Z,36.20
2023-03-02T22:45:23.708Z,36.10
2023-03-02T22:47:53.350Z,36.10
2023-03-02T22:50:27.345Z,36.10
2023-03-02T22:53:00.219Z,36.60
2023-03-02T22:55:45.541Z,36.30
2023-03-02T22:58:45.280Z,36.90
2023-03-02T23:01:21.962Z,37.30
2023-03-02T23:03:57.966Z,36.80
2023-03-02T23:06:29.170Z,36.70
2023-03-02T23:09:02.685Z,36.60
2023-03-02T23:11:37.427Z,36.80
2023-03-02T23:14:25.236Z,36.90
2023-03-02T23:17:08.607Z,37.30
2023-03-02T23:19:40.433Z,37.30
2023-03-02T23:22:07.462Z,36.80
2023-03-02T23:24:39.931Z,37.00
2023-03-02T23:27:11.603Z,37.00
2023-03-02T23:29:40.771Z,37.10
2023-03-02T23:32:10.196Z,37.20
2023-03-02T23:34:37.161Z,37.30
2023-03-02T23:37:08.576Z,38.00
2023-03-02T23:39:35.459Z,37.50
2023-03-02T23:42:06.820Z,37.40
2023-03-02T23:44:33.736Z,37.50
2023-03-02T23:47:05.316Z,37.50
2023-03-02T23:49:32.219Z,37.60
2023-03-02T23:51:59.128Z,37.60
2023-03-02T23:54:28.173Z,37.70
2023-03-02T23:56:57.504Z,37.80
2023-03-02T23:59:26.546Z,38.50
